Hauptseite
METAR-TAF:

METAR-TAF

Flughäfen :

Militärflugplatz Solenzara

Solenzara, Frankreich

Breite: 41-55N, Länge: 009-24E, Höhe: 8 m

Beobachtung

Neuester Wetterbericht von vor 18 Minuten, um 10:30 UTC
Wind 5 kt aus Ost/Südost, variierte zwischen Ost und Südost
Temperatur 18°C
Luftfeuchtigkeit 77%
Luftdruck 1018 hPa
Sichtweite 10 km oder mehr
keine Wolken unter 1500 m und keine Kumulonimbus oder Gewitterwolken

METAR: LFKS 251030Z AUTO 11005KT 080V140 CAVOK 18/14 Q1018

Zeit: 12:48 (10:48 UTC)

Prognose

Neuester Wetterbericht von vor 2 Stunden und 48 Minuten, um 08:00 UTC
Gültige Prognose vom 25 um 09 UTC bis 26 um 09 UTC
Wind 5 kt aus Nordost
Sichtweite 10 km oder mehr
Leicht bewölkt in der Höhe von 2000 ft

TAF: LFKS 250800Z 2509/2609 04005KT 9999 FEW020

Wetterbeobachtungen und Prognosen von mehr als 4000 Flughäfen (METAR und TAF Bericht).

Die verfügbaren Stationen werden durch gelbe und rote Markierungen auf der Karte dargestellt.

Führen Sie die Maus auf sie, um den Namen der Station zu sehen.

Darauf klicken, um die Beobachtung von Wetterbeobachtungen und Prognosen zu sehen.

Um die Karte zu ändern : klicken Sie auf den grünen Tasten mit einem schwarzen Kreuz Zum Vergrößern, auf den grünen Button mit einem Gedankenstrich zu verkleinern, oder auf die grünen Pfeile für benachbarte Karten.


METAR-TAF: